createdAt,value
2023-07-17T00:00:12.927Z,100064.81
2023-07-17T00:02:42.053Z,100068.31
2023-07-17T00:05:11.593Z,100069.13
2023-07-17T00:07:40.622Z,100062.94
2023-07-17T00:10:10.380Z,100059.97
2023-07-17T00:12:38.940Z,100063.16
2023-07-17T00:15:10.253Z,100062.66
2023-07-17T00:17:39.958Z,100069.72
2023-07-17T00:20:13.068Z,100069.81
2023-07-17T00:22:42.341Z,100069.00
2023-07-17T00:25:11.692Z,100064.06
2023-07-17T00:27:40.311Z,100076.31
2023-07-17T00:30:10.881Z,100077.91
2023-07-17T00:32:39.283Z,100073.22
2023-07-17T00:35:08.282Z,100083.56
2023-07-17T00:37:36.767Z,100082.84
2023-07-17T00:40:08.454Z,100081.44
2023-07-17T00:42:37.012Z,100077.28
2023-07-17T00:45:06.689Z,100072.94
2023-07-17T00:47:37.756Z,100085.59
2023-07-17T00:50:08.270Z,100077.88
2023-07-17T00:52:36.728Z,100085.63
2023-07-17T00:55:06.842Z,100078.59
2023-07-17T00:57:38.345Z,100086.16
2023-07-17T01:00:10.229Z,100079.78
2023-07-17T01:02:40.699Z,100084.97
2023-07-17T01:05:10.230Z,100098.59
2023-07-17T01:07:40.534Z,100085.94
2023-07-17T01:10:09.758Z,100087.50
2023-07-17T01:12:38.872Z,100087.34
2023-07-17T01:15:08.251Z,100081.06
2023-07-17T01:17:37.690Z,100090.28
2023-07-17T01:20:11.264Z,100083.72
2023-07-17T01:22:42.644Z,100080.25
2023-07-17T01:25:12.726Z,100093.19
2023-07-17T01:27:41.303Z,100090.53
2023-07-17T01:30:10.984Z,100092.53
2023-07-17T01:32:39.548Z,100097.41
2023-07-17T01:35:09.316Z,100093.31
2023-07-17T01:37:37.771Z,100093.59
2023-07-17T01:40:09.031Z,100095.78
2023-07-17T01:42:38.925Z,100100.84
2023-07-17T01:45:08.380Z,100087.94
2023-07-17T01:47:37.119Z,100094.53
2023-07-17T01:50:05.763Z,100092.63
2023-07-17T01:52:35.206Z,100106.66
2023-07-17T01:55:03.620Z,100095.63
2023-07-17T01:57:33.369Z,100105.75
2023-07-17T02:00:04.280Z,100101.56
2023-07-17T02:02:35.349Z,100103.91
2023-07-17T02:05:03.883Z,100100.31
2023-07-17T02:07:33.113Z,100102.66
2023-07-17T02:10:01.386Z,100102.53
2023-07-17T02:12:30.913Z,100102.03
2023-07-17T02:14:59.465Z,100098.56
2023-07-17T02:17:29.464Z,100102.69
2023-07-17T02:19:58.024Z,100109.69
2023-07-17T02:22:26.536Z,100107.53
2023-07-17T02:24:56.083Z,100109.38
2023-07-17T02:27:24.877Z,100117.78
2023-07-17T02:29:53.894Z,100117.66
2023-07-17T02:32:22.328Z,100119.00
2023-07-17T02:34:52.092Z,100111.72
2023-07-17T02:37:20.706Z,100110.34
2023-07-17T02:39:49.136Z,100109.88
2023-07-17T02:42:17.546Z,100125.31
2023-07-17T02:44:46.189Z,100122.41
2023-07-17T02:47:14.733Z,100122.66
2023-07-17T02:49:43.515Z,100114.41
2023-07-17T02:52:13.337Z,100113.28
2023-07-17T02:54:41.828Z,100121.81
2023-07-17T02:57:11.423Z,100127.22
2023-07-17T02:59:39.877Z,100120.56
2023-07-17T03:02:08.317Z,100120.56
2023-07-17T03:04:36.786Z,100124.41
2023-07-17T03:07:05.569Z,100116.88
2023-07-17T03:09:35.398Z,100118.94
2023-07-17T03:12:04.351Z,100115.63
2023-07-17T03:14:32.766Z,100122.75
2023-07-17T03:17:01.069Z,100105.06
2023-07-17T03:19:29.501Z,100117.31
2023-07-17T03:21:57.965Z,100118.22
2023-07-17T03:24:26.440Z,100127.16
2023-07-17T03:26:56.248Z,100117.94
2023-07-17T03:29:25.710Z,100115.22
2023-07-17T03:31:54.122Z,100116.47
2023-07-17T03:34:22.529Z,100115.66
2023-07-17T03:36:51.073Z,100114.81
2023-07-17T03:39:19.376Z,100120.31
2023-07-17T03:41:47.780Z,100112.41
2023-07-17T03:44:17.706Z,100114.22
2023-07-17T03:46:46.716Z,100119.47
2023-07-17T03:49:15.078Z,100111.34
2023-07-17T03:51:43.453Z,100124.56
2023-07-17T03:54:12.816Z,100110.34
2023-07-17T03:56:42.333Z,100118.66
2023-07-17T03:59:10.967Z,100118.81
2023-07-17T04:01:42.225Z,100117.53
2023-07-17T04:04:10.795Z,100118.69
2023-07-17T04:06:39.232Z,100121.59
2023-07-17T04:09:07.530Z,100114.66
2023-07-17T04:11:36.402Z,100109.16
2023-07-17T04:14:04.901Z,100114.06
2023-07-17T04:16:37.764Z,100116.63
2023-07-17T04:19:07.594Z,100114.22
2023-07-17T04:21:36.017Z,100106.97
2023-07-17T04:24:05.038Z,100109.72
2023-07-17T04:26:33.538Z,100115.19
2023-07-17T04:29:01.873Z,100107.34
2023-07-17T04:31:30.294Z,100105.69
2023-07-17T04:33:59.722Z,100102.44
2023-07-17T04:36:29.497Z,100102.66
2023-07-17T04:38:57.837Z,100108.00
2023-07-17T04:41:26.423Z,100102.25
2023-07-17T04:43:54.995Z,100109.72
2023-07-17T04:46:23.502Z,100108.22
2023-07-17T04:48:51.986Z,100110.78
2023-07-17T04:51:21.923Z,100104.38
2023-07-17T04:53:51.879Z,100115.72
2023-07-17T04:56:20.303Z,100117.28
2023-07-17T04:58:48.673Z,100118.25
2023-07-17T05:01:17.526Z,100114.38
2023-07-17T05:03:46.387Z,100111.81
2023-07-17T05:06:15.393Z,100111.47
2023-07-17T05:08:43.909Z,100106.31
2023-07-17T05:11:13.863Z,100110.19
2023-07-17T05:13:42.599Z,100095.47
2023-07-17T05:16:11.074Z,100099.72
2023-07-17T05:18:39.548Z,100095.53
2023-07-17T05:21:07.927Z,100093.28
2023-07-17T05:23:36.432Z,100095.69
2023-07-17T05:26:04.947Z,100084.41
2023-07-17T05:28:36.582Z,100100.63
2023-07-17T05:31:05.728Z,100093.91
2023-07-17T05:33:34.221Z,100095.00
2023-07-17T05:36:02.721Z,100093.16
2023-07-17T05:38:32.137Z,100102.00
2023-07-17T05:41:01.034Z,100089.84
2023-07-17T05:43:29.742Z,100093.72
2023-07-17T05:45:59.625Z,100097.06
2023-07-17T05:48:28.160Z,100099.19
2023-07-17T05:50:56.860Z,100095.56
2023-07-17T05:53:25.372Z,100094.16
2023-07-17T05:55:55.125Z,100091.16
2023-07-17T05:58:23.783Z,100088.81
2023-07-17T06:00:52.229Z,100084.25
2023-07-17T06:03:22.504Z,100087.94
2023-07-17T06:05:51.055Z,100088.25
2023-07-17T06:08:19.484Z,100081.31
2023-07-17T06:10:48.849Z,100090.38
2023-07-17T06:13:17.867Z,100086.69
2023-07-17T06:15:47.884Z,100093.66
2023-07-17T06:18:17.267Z,100103.59
2023-07-17T06:20:48.185Z,100093.03
2023-07-17T06:23:16.685Z,100087.34
2023-07-17T06:25:46.565Z,100089.00
2023-07-17T06:28:15.721Z,100094.31
2023-07-17T06:30:47.714Z,100099.66
2023-07-17T06:33:16.755Z,100096.63
2023-07-17T06:35:47.583Z,100095.09
2023-07-17T06:38:16.118Z,100090.56
2023-07-17T06:40:44.623Z,100088.13
2023-07-17T06:43:14.131Z,100086.84
2023-07-17T06:45:42.673Z,100083.03
2023-07-17T06:48:11.056Z,100087.16
2023-07-17T06:50:39.426Z,100084.78
2023-07-17T06:53:09.339Z,100091.28
2023-07-17T06:55:37.691Z,100078.16
2023-07-17T06:58:06.202Z,100084.53
2023-07-17T07:00:34.693Z,100082.50
2023-07-17T07:03:03.217Z,100089.38
2023-07-17T07:05:31.775Z,100081.69
2023-07-17T07:08:00.266Z,100072.41
2023-07-17T07:10:30.153Z,100077.09
2023-07-17T07:12:58.550Z,100062.22
2023-07-17T07:15:28.017Z,100068.94
2023-07-17T07:17:56.522Z,100074.00
2023-07-17T07:20:25.003Z,100077.59
2023-07-17T07:22:53.740Z,100074.72
2023-07-17T07:25:22.431Z,100073.16
2023-07-17T07:27:52.272Z,100073.16
2023-07-17T07:30:20.839Z,100077.44
2023-07-17T07:32:50.934Z,100066.63
2023-07-17T07:35:20.597Z,100068.47
2023-07-17T07:37:51.013Z,100075.47
2023-07-17T07:40:20.454Z,100074.13
2023-07-17T07:42:49.844Z,100065.78
2023-07-17T07:45:21.543Z,100077.16
2023-07-17T07:47:51.157Z,100066.28
2023-07-17T07:50:21.273Z,100068.41
2023-07-17T07:52:56.410Z,100057.66
2023-07-17T07:55:26.856Z,100055.75
2023-07-17T07:57:57.393Z,100054.91
2023-07-17T08:00:28.257Z,100050.28
2023-07-17T08:02:57.978Z,100049.44
2023-07-17T08:05:27.503Z,100049.44
2023-07-17T08:07:56.009Z,100041.06
2023-07-17T08:10:25.709Z,100039.91
2023-07-17T08:12:54.100Z,100045.13
2023-07-17T08:15:22.559Z,100036.50
2023-07-17T08:17:53.935Z,100042.13
2023-07-17T08:20:22.372Z,100040.97
2023-07-17T08:22:56.445Z,100036.88
2023-07-17T08:25:25.214Z,100028.50
2023-07-17T08:27:53.590Z,100030.66
2023-07-17T08:30:22.164Z,100035.19
2023-07-17T08:32:50.613Z,100026.66
2023-07-17T08:35:21.150Z,100024.19
2023-07-17T08:37:49.580Z,100026.31
2023-07-17T08:40:18.267Z,100018.25
2023-07-17T08:42:48.043Z,100018.31
2023-07-17T08:45:16.707Z,100020.00
2023-07-17T08:47:45.696Z,100021.06
2023-07-17T08:50:15.252Z,100015.88
2023-07-17T08:52:45.560Z,100016.00
2023-07-17T08:55:14.022Z,100019.31
2023-07-17T08:57:43.677Z,100015.72
2023-07-17T09:00:17.344Z,100013.00
2023-07-17T09:02:45.790Z,100001.78
2023-07-17T09:05:14.341Z,100006.28
2023-07-17T09:07:42.799Z,100019.97
2023-07-17T09:10:21.610Z,100017.19
2023-07-17T09:12:54.845Z,100005.41
2023-07-17T09:15:23.779Z,100011.72
2023-07-17T09:17:52.231Z,100010.44
2023-07-17T09:20:21.852Z,100009.47
2023-07-17T09:22:51.032Z,100001.66
2023-07-17T09:25:21.008Z,99995.44
2023-07-17T09:27:51.564Z,99993.09
2023-07-17T09:30:22.517Z,99999.69
2023-07-17T09:32:52.822Z,99997.25
2023-07-17T09:35:24.722Z,99999.50
2023-07-17T09:37:53.805Z,99994.81
2023-07-17T09:40:23.684Z,99995.41
2023-07-17T09:42:55.506Z,99988.50
2023-07-17T09:45:24.052Z,99995.94
2023-07-17T09:47:53.061Z,99993.50
2023-07-17T09:50:25.502Z,99987.03
2023-07-17T09:52:54.927Z,99989.38
2023-07-17T09:55:27.650Z,99983.41
2023-07-17T09:58:00.521Z,99985.22
2023-07-17T10:00:30.207Z,99976.03
2023-07-17T10:03:05.916Z,99988.28
2023-07-17T10:05:35.566Z,99983.22
2023-07-17T10:08:06.647Z,99990.03
2023-07-17T10:10:38.012Z,99983.78
2023-07-17T10:13:07.588Z,99993.88
2023-07-17T10:15:36.634Z,99980.47
2023-07-17T10:18:07.490Z,99973.84
2023-07-17T10:20:39.787Z,99974.88
2023-07-17T10:23:13.184Z,99982.59
2023-07-17T10:25:43.105Z,99975.56
2023-07-17T10:28:12.260Z,99977.78
2023-07-17T10:30:40.772Z,99968.28
2023-07-17T10:33:12.861Z,99969.03
2023-07-17T10:35:50.398Z,99968.44
2023-07-17T10:38:20.043Z,99965.69
2023-07-17T10:40:50.088Z,99973.22
2023-07-17T10:43:20.393Z,99965.13
2023-07-17T10:45:50.214Z,99966.94
2023-07-17T10:48:19.886Z,99957.38
2023-07-17T10:50:50.865Z,99958.16
2023-07-17T10:53:19.325Z,99957.72
2023-07-17T10:55:48.657Z,99957.44
2023-07-17T10:58:20.236Z,99950.09
2023-07-17T11:00:49.017Z,99948.72
2023-07-17T11:03:18.182Z,99948.69
2023-07-17T11:05:48.068Z,99941.34
2023-07-17T11:08:16.453Z,99934.59
2023-07-17T11:10:46.114Z,99932.75
2023-07-17T11:13:14.727Z,99929.91
2023-07-17T11:15:45.229Z,99922.31
2023-07-17T11:18:13.839Z,99919.19
2023-07-17T11:20:42.520Z,99917.03
2023-07-17T11:23:14.754Z,99931.88
2023-07-17T11:25:43.501Z,99926.38
2023-07-17T11:28:12.599Z,99918.84
2023-07-17T11:30:41.281Z,99916.13
2023-07-17T11:33:11.575Z,99909.63
2023-07-17T11:35:51.064Z,99917.22
2023-07-17T11:38:21.945Z,99909.00
2023-07-17T11:40:54.503Z,99914.69
2023-07-17T11:43:27.279Z,99913.50
2023-07-17T11:45:57.966Z,99912.22
2023-07-17T11:48:27.942Z,99923.09
2023-07-17T11:50:57.816Z,99906.34
2023-07-17T11:53:28.475Z,99908.06
2023-07-17T11:55:56.934Z,99911.94
2023-07-17T11:58:26.960Z,99907.38
2023-07-17T12:00:56.520Z,99904.91
2023-07-17T12:03:25.312Z,99896.25
2023-07-17T12:05:55.443Z,99896.22
2023-07-17T12:08:23.848Z,99889.63
2023-07-17T12:10:52.282Z,99895.47
2023-07-17T12:13:20.656Z,99898.66
2023-07-17T12:15:49.095Z,99897.28
2023-07-17T12:18:17.410Z,99887.59
2023-07-17T12:20:45.799Z,99892.06
2023-07-17T12:23:16.075Z,99885.22
2023-07-17T12:25:46.858Z,99882.31
2023-07-17T12:28:15.370Z,99889.66
2023-07-17T12:30:44.565Z,99875.63
2023-07-17T12:33:13.367Z,99879.59
2023-07-17T12:35:43.564Z,99874.72
2023-07-17T12:38:12.124Z,99876.66
2023-07-17T12:40:41.949Z,99882.06
2023-07-17T12:43:10.443Z,99872.78
2023-07-17T12:45:38.990Z,99868.19
2023-07-17T12:48:08.178Z,99861.03
2023-07-17T12:50:36.802Z,99865.75
2023-07-17T12:53:05.379Z,99862.47
2023-07-17T12:55:33.709Z,99864.09
2023-07-17T12:58:04.778Z,99864.16
2023-07-17T13:00:33.552Z,99863.16
2023-07-17T13:03:01.958Z,99856.81
2023-07-17T13:05:30.542Z,99863.66
2023-07-17T13:07:59.012Z,99859.03
2023-07-17T13:10:27.468Z,99846.81
2023-07-17T13:12:55.848Z,99853.31
2023-07-17T13:15:25.803Z,99865.50
2023-07-17T13:17:54.259Z,99862.91
2023-07-17T13:20:22.804Z,99860.81
2023-07-17T13:22:51.424Z,99858.34
2023-07-17T13:25:20.712Z,99857.09
2023-07-17T13:27:49.532Z,99850.41
2023-07-17T13:30:19.030Z,99850.50
2023-07-17T13:32:48.885Z,99845.94
2023-07-17T13:35:17.354Z,99853.00
2023-07-17T13:37:46.468Z,99845.81
2023-07-17T13:40:15.269Z,99842.41
2023-07-17T13:42:43.769Z,99848.13
2023-07-17T13:45:12.442Z,99855.06
2023-07-17T13:47:40.916Z,99844.72
2023-07-17T13:50:11.421Z,99849.47
2023-07-17T13:52:39.831Z,99839.66
2023-07-17T13:55:09.984Z,99838.03
2023-07-17T13:57:38.521Z,99841.69
2023-07-17T14:00:08.186Z,99831.13
2023-07-17T14:02:37.543Z,99834.94
2023-07-17T14:05:06.604Z,99830.84
2023-07-17T14:07:36.330Z,99827.03
2023-07-17T14:10:04.983Z,99827.94
2023-07-17T14:12:33.568Z,99823.59
2023-07-17T14:15:03.004Z,99827.00
2023-07-17T14:17:33.987Z,99821.28
2023-07-17T14:20:02.453Z,99820.09
2023-07-17T14:22:32.595Z,99820.94
2023-07-17T14:25:02.549Z,99822.22
2023-07-17T14:27:32.306Z,99815.31
2023-07-17T14:30:00.660Z,99820.25
2023-07-17T14:32:29.193Z,99824.31
2023-07-17T14:34:58.554Z,99811.19
2023-07-17T14:37:26.902Z,99809.13
2023-07-17T14:39:55.358Z,99805.91
2023-07-17T14:42:25.454Z,99804.66
2023-07-17T14:44:53.925Z,99805.09
2023-07-17T14:47:22.931Z,99805.09
2023-07-17T14:49:51.574Z,99807.91
2023-07-17T14:52:20.654Z,99809.97
2023-07-17T14:54:49.113Z,99801.78
2023-07-17T14:57:17.489Z,99794.84
2023-07-17T14:59:47.341Z,99794.31
2023-07-17T15:02:15.831Z,99797.16
2023-07-17T15:04:44.221Z,99797.56
2023-07-17T15:07:13.664Z,99802.44
2023-07-17T15:09:42.112Z,99797.56
2023-07-17T15:12:10.929Z,99793.91
2023-07-17T15:14:39.516Z,99796.78
2023-07-17T15:17:09.480Z,99787.03
2023-07-17T15:19:42.038Z,99793.22
2023-07-17T15:22:10.925Z,99787.91
2023-07-17T15:24:39.252Z,99794.88
2023-07-17T15:27:08.050Z,99797.78
2023-07-17T15:29:36.794Z,99796.13
2023-07-17T15:32:05.606Z,99790.41
2023-07-17T15:34:35.455Z,99792.91
2023-07-17T15:37:04.024Z,99791.31
2023-07-17T15:39:33.754Z,99784.00
2023-07-17T15:42:02.175Z,99784.91
2023-07-17T15:44:30.681Z,99797.19
2023-07-17T15:46:59.979Z,99784.16
2023-07-17T15:49:28.795Z,99795.97
2023-07-17T15:51:59.050Z,99792.31
2023-07-17T15:54:27.442Z,99789.06
2023-07-17T15:56:55.818Z,99780.91
2023-07-17T15:59:24.302Z,99780.94
2023-07-17T16:01:52.824Z,99782.59
2023-07-17T16:04:21.279Z,99781.41
2023-07-17T16:06:49.703Z,99774.47
2023-07-17T16:09:22.497Z,99773.63
2023-07-17T16:11:51.466Z,99775.25
2023-07-17T16:14:19.757Z,99772.00
2023-07-17T16:16:48.433Z,99778.53
2023-07-17T16:19:16.909Z,99772.38
2023-07-17T16:21:45.311Z,99767.50
2023-07-17T16:24:13.783Z,99773.63
2023-07-17T16:26:43.672Z,99773.63
2023-07-17T16:29:12.249Z,99773.63
2023-07-17T16:31:40.842Z,99784.66
2023-07-17T16:34:09.352Z,99780.16
2023-07-17T16:36:37.894Z,99778.09
2023-07-17T16:39:06.576Z,99772.78
2023-07-17T16:41:35.242Z,99774.38
2023-07-17T16:44:06.568Z,99773.53
2023-07-17T16:46:35.307Z,99778.38
2023-07-17T16:49:03.868Z,99776.75
2023-07-17T16:51:32.271Z,99775.09
2023-07-17T16:54:00.715Z,99779.91
2023-07-17T16:56:29.096Z,99774.19
2023-07-17T16:58:57.712Z,99781.50
2023-07-17T17:01:29.027Z,99778.19
2023-07-17T17:03:57.479Z,99774.88
2023-07-17T17:06:26.031Z,99773.97
2023-07-17T17:09:10.681Z,99780.03
2023-07-17T17:11:39.047Z,99775.09
2023-07-17T17:14:09.064Z,99779.91
2023-07-17T17:16:39.456Z,99784.38
2023-07-17T17:19:09.703Z,99786.75
2023-07-17T17:21:38.217Z,99772.78
2023-07-17T17:24:07.306Z,99779.22
2023-07-17T17:26:36.422Z,99783.22
2023-07-17T17:29:04.868Z,99783.16
2023-07-17T17:31:33.326Z,99788.00
2023-07-17T17:34:03.086Z,99783.00
2023-07-17T17:36:31.906Z,99781.31
2023-07-17T17:39:00.356Z,99788.53
2023-07-17T17:41:28.898Z,99792.53
2023-07-17T17:43:57.346Z,99790.03
2023-07-17T17:46:26.525Z,99790.72
2023-07-17T17:48:54.956Z,99794.69
2023-07-17T17:51:24.862Z,99792.19
2023-07-17T17:53:53.439Z,99792.91
2023-07-17T17:56:21.889Z,99795.28
2023-07-17T17:58:50.313Z,99794.41
2023-07-17T18:01:19.167Z,99796.75
2023-07-17T18:03:47.977Z,99796.63
2023-07-17T18:06:16.479Z,99795.72
2023-07-17T18:08:46.264Z,99787.94
2023-07-17T18:11:16.318Z,99793.06
2023-07-17T18:13:45.994Z,99791.41
2023-07-17T18:16:14.645Z,99786.47
2023-07-17T18:18:44.177Z,99783.16
2023-07-17T18:21:12.849Z,99791.88
2023-07-17T18:23:42.247Z,99790.13
2023-07-17T18:26:12.286Z,99793.28
2023-07-17T18:28:40.680Z,99790.34
2023-07-17T18:31:09.573Z,99787.34
2023-07-17T18:33:38.163Z,99788.50
2023-07-17T18:36:09.160Z,99785.53
2023-07-17T18:38:38.354Z,99794.34
2023-07-17T18:41:06.808Z,99793.47
2023-07-17T18:43:36.777Z,99789.16
2023-07-17T18:46:05.297Z,99781.72
2023-07-17T18:48:33.794Z,99780.72
2023-07-17T18:51:03.310Z,99769.94
2023-07-17T18:53:31.902Z,99781.41
2023-07-17T18:56:00.342Z,99783.34
2023-07-17T18:58:28.759Z,99782.53
2023-07-17T19:00:58.743Z,99783.25
2023-07-17T19:03:27.237Z,99784.75
2023-07-17T19:05:57.151Z,99781.53
2023-07-17T19:08:27.196Z,99780.34
2023-07-17T19:10:55.709Z,99786.31
2023-07-17T19:13:24.392Z,99781.28
2023-07-17T19:15:52.956Z,99780.28
2023-07-17T19:18:22.769Z,99778.84
2023-07-17T19:20:51.319Z,99778.03
2023-07-17T19:23:20.389Z,99777.22
2023-07-17T19:25:49.078Z,99785.72
2023-07-17T19:28:17.473Z,99777.50
2023-07-17T19:30:47.743Z,99780.69
2023-07-17T19:33:16.508Z,99777.72
2023-07-17T19:35:46.651Z,99784.56
2023-07-17T19:38:14.986Z,99785.69
2023-07-17T19:40:43.421Z,99777.03
2023-07-17T19:43:12.238Z,99777.13
2023-07-17T19:45:40.761Z,99777.19
2023-07-17T19:48:10.933Z,99781.94
2023-07-17T19:50:39.528Z,99777.59
2023-07-17T20:46:39.407Z,99754.25
2023-07-17T20:49:07.865Z,99766.38
2023-07-17T20:51:36.308Z,99756.72
2023-07-17T20:54:04.926Z,99748.69
2023-07-17T20:56:34.106Z,99757.72
2023-07-17T20:59:02.525Z,99753.16
2023-07-17T21:01:31.000Z,99751.72
2023-07-17T21:04:01.951Z,99746.50
2023-07-17T21:06:30.863Z,99748.63
2023-07-17T21:08:59.339Z,99744.59
2023-07-17T21:11:28.300Z,99750.25
2023-07-17T21:13:58.453Z,99753.19
2023-07-17T21:16:26.822Z,99753.28
2023-07-17T21:18:56.040Z,99748.53
2023-07-17T21:21:26.053Z,99753.44
2023-07-17T21:23:54.409Z,99760.66
2023-07-17T21:26:22.848Z,99755.16
2023-07-17T21:28:58.405Z,99752.91
2023-07-17T21:31:26.971Z,99755.34
2023-07-17T21:33:55.347Z,99744.41
2023-07-17T21:36:23.823Z,99740.84
2023-07-17T21:38:53.689Z,99748.78
2023-07-17T21:41:22.232Z,99740.00
2023-07-17T21:43:51.350Z,99739.03
2023-07-17T21:46:19.787Z,99735.84
2023-07-17T21:48:48.263Z,99729.44
2023-07-17T21:51:20.894Z,99722.97
2023-07-17T21:53:49.593Z,99720.88
2023-07-17T21:56:19.310Z,99715.66
2023-07-17T21:58:47.700Z,99710.84
2023-07-17T22:01:16.379Z,99710.75
